sensor_id;sensor_type;location;lat;lon;timestamp;P1;durP1;ratioP1;P2;durP2;ratioP2
66761;SDS011;53672;48.176;16.338;2024-01-10T00:04:26;46.05;;;15.70;;
66761;SDS011;53672;48.176;16.338;2024-01-10T00:09:27;54.83;;;15.40;;
66761;SDS011;53672;48.176;16.338;2024-01-10T00:14:30;49.60;;;15.10;;
66761;SDS011;53672;48.176;16.338;2024-01-10T00:19:32;45.72;;;15.88;;
66761;SDS011;53672;48.176;16.338;2024-01-10T00:24:34;49.40;;;14.97;;
66761;SDS011;53672;48.176;16.338;2024-01-10T00:29:37;48.03;;;14.68;;
66761;SDS011;53672;48.176;16.338;2024-01-10T00:34:38;48.00;;;15.80;;
66761;SDS011;53672;48.176;16.338;2024-01-10T00:39:40;45.05;;;15.52;;
66761;SDS011;53672;48.176;16.338;2024-01-10T00:44:43;42.13;;;14.82;;
66761;SDS011;53672;48.176;16.338;2024-01-10T00:49:44;54.97;;;16.60;;
66761;SDS011;53672;48.176;16.338;2024-01-10T00:54:46;48.17;;;16.15;;
66761;SDS011;53672;48.176;16.338;2024-01-10T00:59:54;45.47;;;14.45;;
66761;SDS011;53672;48.176;16.338;2024-01-10T01:04:57;52.20;;;16.30;;
66761;SDS011;53672;48.176;16.338;2024-01-10T01:10:02;52.80;;;15.07;;
66761;SDS011;53672;48.176;16.338;2024-01-10T01:15:07;41.87;;;14.93;;
66761;SDS011;53672;48.176;16.338;2024-01-10T01:20:10;52.00;;;15.82;;
66761;SDS011;53672;48.176;16.338;2024-01-10T01:25:13;43.00;;;14.15;;
66761;SDS011;53672;48.176;16.338;2024-01-10T01:30:16;43.08;;;15.07;;
66761;SDS011;53672;48.176;16.338;2024-01-10T01:35:18;51.42;;;14.38;;
66761;SDS011;53672;48.176;16.338;2024-01-10T01:40:22;42.97;;;15.23;;
66761;SDS011;53672;48.176;16.338;2024-01-10T01:45:27;48.78;;;16.83;;
66761;SDS011;53672;48.176;16.338;2024-01-10T01:50:30;58.40;;;16.83;;
66761;SDS011;53672;48.176;16.338;2024-01-10T01:55:33;28.08;;;9.57;;
66761;SDS011;53672;48.176;16.338;2024-01-10T02:00:37;60.67;;;17.48;;
66761;SDS011;53672;48.176;16.338;2024-01-10T02:05:39;56.03;;;18.27;;
66761;SDS011;53672;48.176;16.338;2024-01-10T02:10:41;54.25;;;18.77;;
66761;SDS011;53672;48.176;16.338;2024-01-10T02:15:44;52.38;;;18.17;;
66761;SDS011;53672;48.176;16.338;2024-01-10T02:20:46;50.95;;;14.95;;
66761;SDS011;53672;48.176;16.338;2024-01-10T02:25:49;56.70;;;18.55;;
66761;SDS011;53672;48.176;16.338;2024-01-10T02:30:51;62.07;;;18.20;;
66761;SDS011;53672;48.176;16.338;2024-01-10T02:35:54;55.25;;;18.23;;
66761;SDS011;53672;48.176;16.338;2024-01-10T02:40:57;59.05;;;19.55;;
66761;SDS011;53672;48.176;16.338;2024-01-10T02:45:58;56.83;;;17.60;;
66761;SDS011;53672;48.176;16.338;2024-01-10T02:51:00;44.20;;;14.23;;
66761;SDS011;53672;48.176;16.338;2024-01-10T02:56:03;65.93;;;18.73;;
66761;SDS011;53672;48.176;16.338;2024-01-10T03:01:05;55.72;;;18.42;;
66761;SDS011;53672;48.176;16.338;2024-01-10T03:06:07;55.05;;;15.82;;
66761;SDS011;53672;48.176;16.338;2024-01-10T03:11:10;60.08;;;21.08;;
66761;SDS011;53672;48.176;16.338;2024-01-10T03:16:11;61.20;;;19.70;;
66761;SDS011;53672;48.176;16.338;2024-01-10T03:21:13;58.10;;;18.50;;
66761;SDS011;53672;48.176;16.338;2024-01-10T03:26:16;53.78;;;17.60;;
66761;SDS011;53672;48.176;16.338;2024-01-10T03:31:17;58.60;;;18.60;;
66761;SDS011;53672;48.176;16.338;2024-01-10T03:36:19;67.38;;;19.10;;
66761;SDS011;53672;48.176;16.338;2024-01-10T03:41:22;59.28;;;18.48;;
66761;SDS011;53672;48.176;16.338;2024-01-10T03:46:24;54.77;;;18.13;;
66761;SDS011;53672;48.176;16.338;2024-01-10T03:51:25;54.83;;;18.42;;
66761;SDS011;53672;48.176;16.338;2024-01-10T03:56:28;54.00;;;18.90;;
66761;SDS011;53672;48.176;16.338;2024-01-10T04:01:30;53.00;;;17.92;;
66761;SDS011;53672;48.176;16.338;2024-01-10T04:06:31;58.40;;;17.63;;
66761;SDS011;53672;48.176;16.338;2024-01-10T04:11:35;63.33;;;18.87;;
66761;SDS011;53672;48.176;16.338;2024-01-10T04:16:37;66.32;;;19.63;;
66761;SDS011;53672;48.176;16.338;2024-01-10T04:21:38;63.75;;;20.02;;
66761;SDS011;53672;48.176;16.338;2024-01-10T04:26:42;52.75;;;16.50;;
66761;SDS011;53672;48.176;16.338;2024-01-10T04:31:43;53.45;;;20.15;;
66761;SDS011;53672;48.176;16.338;2024-01-10T04:36:45;59.07;;;20.67;;
66761;SDS011;53672;48.176;16.338;2024-01-10T04:41:48;46.55;;;16.83;;
66761;SDS011;53672;48.176;16.338;2024-01-10T04:46:50;56.17;;;18.70;;
66761;SDS011;53672;48.176;16.338;2024-01-10T04:51:51;62.75;;;19.48;;
66761;SDS011;53672;48.176;16.338;2024-01-10T04:56:54;58.28;;;18.52;;
66761;SDS011;53672;48.176;16.338;2024-01-10T05:01:56;54.53;;;18.73;;
66761;SDS011;53672;48.176;16.338;2024-01-10T05:06:58;60.22;;;21.00;;
66761;SDS011;53672;48.176;16.338;2024-01-10T05:12:01;53.78;;;19.30;;
66761;SDS011;53672;48.176;16.338;2024-01-10T05:17:02;53.90;;;17.38;;
66761;SDS011;53672;48.176;16.338;2024-01-10T05:22:04;57.97;;;19.75;;
66761;SDS011;53672;48.176;16.338;2024-01-10T05:27:07;57.37;;;19.03;;
66761;SDS011;53672;48.176;16.338;2024-01-10T05:32:09;64.90;;;19.65;;
66761;SDS011;53672;48.176;16.338;2024-01-10T05:37:10;59.55;;;18.10;;
66761;SDS011;53672;48.176;16.338;2024-01-10T05:42:13;62.05;;;18.98;;
66761;SDS011;53672;48.176;16.338;2024-01-10T05:47:15;56.30;;;18.58;;
66761;SDS011;53672;48.176;16.338;2024-01-10T05:52:17;67.87;;;19.53;;
66761;SDS011;53672;48.176;16.338;2024-01-10T05:57:20;58.45;;;17.67;;
66761;SDS011;53672;48.176;16.338;2024-01-10T06:02:23;59.95;;;19.63;;
66761;SDS011;53672;48.176;16.338;2024-01-10T06:07:25;57.75;;;17.67;;
66761;SDS011;53672;48.176;16.338;2024-01-10T06:12:28;56.17;;;16.92;;
66761;SDS011;53672;48.176;16.338;2024-01-10T06:17:29;46.80;;;17.23;;
66761;SDS011;53672;48.176;16.338;2024-01-10T06:22:31;50.75;;;15.90;;
66761;SDS011;53672;48.176;16.338;2024-01-10T06:27:34;32.40;;;10.88;;
66761;SDS011;53672;48.176;16.338;2024-01-10T06:32:36;34.22;;;13.38;;
66761;SDS011;53672;48.176;16.338;2024-01-10T06:37:37;50.88;;;16.73;;
66761;SDS011;53672;48.176;16.338;2024-01-10T06:42:40;53.10;;;19.87;;
66761;SDS011;53672;48.176;16.338;2024-01-10T06:47:42;60.47;;;19.10;;
66761;SDS011;53672;48.176;16.338;2024-01-10T06:52:44;59.88;;;18.95;;
66761;SDS011;53672;48.176;16.338;2024-01-10T06:57:46;50.40;;;17.15;;
66761;SDS011;53672;48.176;16.338;2024-01-10T07:02:48;29.40;;;10.90;;
66761;SDS011;53672;48.176;16.338;2024-01-10T07:07:50;50.50;;;16.37;;
66761;SDS011;53672;48.176;16.338;2024-01-10T07:12:53;53.95;;;17.77;;
66761;SDS011;53672;48.176;16.338;2024-01-10T07:17:55;55.50;;;17.75;;
66761;SDS011;53672;48.176;16.338;2024-01-10T07:22:57;58.50;;;17.63;;
66761;SDS011;53672;48.176;16.338;2024-01-10T07:28:00;48.90;;;17.15;;
66761;SDS011;53672;48.176;16.338;2024-01-10T07:33:02;57.03;;;19.20;;
66761;SDS011;53672;48.176;16.338;2024-01-10T07:38:04;64.70;;;20.95;;
66761;SDS011;53672;48.176;16.338;2024-01-10T07:43:06;69.03;;;20.73;;
66761;SDS011;53672;48.176;16.338;2024-01-10T07:48:08;70.32;;;19.98;;
66761;SDS011;53672;48.176;16.338;2024-01-10T07:53:11;58.08;;;19.77;;
66761;SDS011;53672;48.176;16.338;2024-01-10T07:58:14;62.80;;;21.43;;
66761;SDS011;53672;48.176;16.338;2024-01-10T08:03:16;71.05;;;21.15;;
66761;SDS011;53672;48.176;16.338;2024-01-10T08:08:18;58.08;;;19.70;;
66761;SDS011;53672;48.176;16.338;2024-01-10T08:13:21;62.63;;;19.45;;
66761;SDS011;53672;48.176;16.338;2024-01-10T08:18:22;59.53;;;19.17;;
66761;SDS011;53672;48.176;16.338;2024-01-10T08:23:24;74.20;;;22.13;;
66761;SDS011;53672;48.176;16.338;2024-01-10T08:28:27;57.95;;;20.50;;
66761;SDS011;53672;48.176;16.338;2024-01-10T08:33:29;63.15;;;20.50;;
66761;SDS011;53672;48.176;16.338;2024-01-10T08:38:31;61.67;;;22.02;;
66761;SDS011;53672;48.176;16.338;2024-01-10T08:43:34;61.10;;;21.63;;
66761;SDS011;53672;48.176;16.338;2024-01-10T08:48:36;61.10;;;24.70;;
66761;SDS011;53672;48.176;16.338;2024-01-10T08:53:37;62.15;;;26.05;;
66761;SDS011;53672;48.176;16.338;2024-01-10T08:58:41;63.45;;;26.92;;
66761;SDS011;53672;48.176;16.338;2024-01-10T09:03:43;61.28;;;26.33;;
66761;SDS011;53672;48.176;16.338;2024-01-10T09:08:44;56.47;;;27.00;;
66761;SDS011;53672;48.176;16.338;2024-01-10T09:13:47;59.87;;;28.23;;
66761;SDS011;53672;48.176;16.338;2024-01-10T09:18:49;59.78;;;28.73;;
66761;SDS011;53672;48.176;16.338;2024-01-10T09:23:54;54.88;;;26.83;;
66761;SDS011;53672;48.176;16.338;2024-01-10T09:28:57;56.55;;;28.42;;
66761;SDS011;53672;48.176;16.338;2024-01-10T09:33:59;60.60;;;29.23;;
66761;SDS011;53672;48.176;16.338;2024-01-10T09:39:00;52.07;;;27.43;;
66761;SDS011;53672;48.176;16.338;2024-01-10T09:44:04;55.55;;;29.50;;
66761;SDS011;53672;48.176;16.338;2024-01-10T09:49:05;55.63;;;29.77;;
66761;SDS011;53672;48.176;16.338;2024-01-10T09:54:07;56.28;;;30.25;;
66761;SDS011;53672;48.176;16.338;2024-01-10T09:59:10;56.00;;;30.10;;
66761;SDS011;53672;48.176;16.338;2024-01-10T10:04:12;55.27;;;30.70;;
66761;SDS011;53672;48.176;16.338;2024-01-10T10:09:17;52.75;;;29.05;;
66761;SDS011;53672;48.176;16.338;2024-01-10T10:14:20;51.25;;;28.58;;
66761;SDS011;53672;48.176;16.338;2024-01-10T10:19:22;51.78;;;28.10;;
66761;SDS011;53672;48.176;16.338;2024-01-10T10:24:24;52.47;;;28.63;;
66761;SDS011;53672;48.176;16.338;2024-01-10T10:29:27;48.70;;;29.03;;
66761;SDS011;53672;48.176;16.338;2024-01-10T10:34:30;48.75;;;29.58;;
66761;SDS011;53672;48.176;16.338;2024-01-10T10:39:32;49.45;;;28.38;;
66761;SDS011;53672;48.176;16.338;2024-01-10T10:44:35;51.10;;;28.90;;
66761;SDS011;53672;48.176;16.338;2024-01-10T10:49:41;48.70;;;28.58;;
66761;SDS011;53672;48.176;16.338;2024-01-10T10:54:52;42.53;;;27.10;;
66761;SDS011;53672;48.176;16.338;2024-01-10T10:59:58;49.83;;;28.40;;
66761;SDS011;53672;48.176;16.338;2024-01-10T11:05:01;46.10;;;27.58;;
66761;SDS011;53672;48.176;16.338;2024-01-10T11:10:04;43.67;;;26.48;;
66761;SDS011;53672;48.176;16.338;2024-01-10T11:15:18;44.80;;;26.98;;
66761;SDS011;53672;48.176;16.338;2024-01-10T11:20:30;43.53;;;25.07;;
66761;SDS011;53672;48.176;16.338;2024-01-10T11:25:44;30.10;;;18.45;;
66761;SDS011;53672;48.176;16.338;2024-01-10T11:30:50;25.70;;;16.42;;
66761;SDS011;53672;48.176;16.338;2024-01-10T11:36:06;28.23;;;16.42;;
66761;SDS011;53672;48.176;16.338;2024-01-10T11:41:13;28.92;;;15.27;;
66761;SDS011;53672;48.176;16.338;2024-01-10T11:46:22;24.83;;;13.33;;
66761;SDS011;53672;48.176;16.338;2024-01-10T11:51:24;21.30;;;11.68;;
66761;SDS011;53672;48.176;16.338;2024-01-10T11:56:25;23.90;;;12.73;;
66761;SDS011;53672;48.176;16.338;2024-01-10T12:01:41;25.30;;;13.48;;
66761;SDS011;53672;48.176;16.338;2024-01-10T12:06:43;28.55;;;13.52;;
66761;SDS011;53672;48.176;16.338;2024-01-10T12:11:47;25.53;;;9.37;;
66761;SDS011;53672;48.176;16.338;2024-01-10T12:16:49;26.38;;;11.32;;
66761;SDS011;53672;48.176;16.338;2024-01-10T12:21:52;16.60;;;6.95;;
66761;SDS011;53672;48.176;16.338;2024-01-10T12:26:53;28.58;;;9.57;;
66761;SDS011;53672;48.176;16.338;2024-01-10T12:31:58;24.13;;;9.57;;
66761;SDS011;53672;48.176;16.338;2024-01-10T12:37:00;22.27;;;7.93;;
66761;SDS011;53672;48.176;16.338;2024-01-10T12:42:02;27.20;;;11.90;;
66761;SDS011;53672;48.176;16.338;2024-01-10T12:47:06;22.67;;;9.25;;
66761;SDS011;53672;48.176;16.338;2024-01-10T12:52:07;23.27;;;8.55;;
66761;SDS011;53672;48.176;16.338;2024-01-10T12:57:09;32.83;;;11.90;;
66761;SDS011;53672;48.176;16.338;2024-01-10T13:02:12;29.43;;;10.83;;
66761;SDS011;53672;48.176;16.338;2024-01-10T13:07:14;27.00;;;11.02;;
66761;SDS011;53672;48.176;16.338;2024-01-10T13:12:16;38.55;;;14.02;;
66761;SDS011;53672;48.176;16.338;2024-01-10T13:17:19;33.50;;;13.07;;
66761;SDS011;53672;48.176;16.338;2024-01-10T13:22:21;28.77;;;12.00;;
66761;SDS011;53672;48.176;16.338;2024-01-10T13:27:22;40.10;;;14.67;;
66761;SDS011;53672;48.176;16.338;2024-01-10T13:32:25;38.50;;;14.38;;
66761;SDS011;53672;48.176;16.338;2024-01-10T13:37:27;36.22;;;13.52;;
66761;SDS011;53672;48.176;16.338;2024-01-10T13:42:29;29.75;;;11.80;;
66761;SDS011;53672;48.176;16.338;2024-01-10T13:47:32;29.35;;;11.38;;
66761;SDS011;53672;48.176;16.338;2024-01-10T13:52:34;33.70;;;11.33;;
66761;SDS011;53672;48.176;16.338;2024-01-10T13:57:36;32.47;;;13.00;;
66761;SDS011;53672;48.176;16.338;2024-01-10T14:02:39;31.60;;;12.43;;
66761;SDS011;53672;48.176;16.338;2024-01-10T14:07:40;30.23;;;10.95;;
66761;SDS011;53672;48.176;16.338;2024-01-10T14:12:44;20.85;;;6.88;;
66761;SDS011;53672;48.176;16.338;2024-01-10T14:17:47;27.10;;;11.57;;
66761;SDS011;53672;48.176;16.338;2024-01-10T14:22:49;14.98;;;5.88;;
66761;SDS011;53672;48.176;16.338;2024-01-10T14:27:51;15.10;;;5.95;;
66761;SDS011;53672;48.176;16.338;2024-01-10T14:32:54;29.95;;;11.30;;
66761;SDS011;53672;48.176;16.338;2024-01-10T14:37:56;29.63;;;11.65;;
66761;SDS011;53672;48.176;16.338;2024-01-10T14:42:57;29.77;;;10.37;;
66761;SDS011;53672;48.176;16.338;2024-01-10T14:48:00;31.50;;;9.98;;
66761;SDS011;53672;48.176;16.338;2024-01-10T14:53:03;22.60;;;7.53;;
66761;SDS011;53672;48.176;16.338;2024-01-10T14:58:04;24.83;;;9.02;;
66761;SDS011;53672;48.176;16.338;2024-01-10T15:03:08;28.63;;;10.30;;
66761;SDS011;53672;48.176;16.338;2024-01-10T15:08:10;33.13;;;11.13;;
66761;SDS011;53672;48.176;16.338;2024-01-10T15:13:12;30.63;;;10.73;;
66761;SDS011;53672;48.176;16.338;2024-01-10T15:18:16;28.40;;;10.25;;
66761;SDS011;53672;48.176;16.338;2024-01-10T15:23:19;19.88;;;6.65;;
66761;SDS011;53672;48.176;16.338;2024-01-10T15:28:21;27.88;;;10.57;;
66761;SDS011;53672;48.176;16.338;2024-01-10T15:33:24;32.87;;;11.30;;
66761;SDS011;53672;48.176;16.338;2024-01-10T15:38:26;32.88;;;11.02;;
66761;SDS011;53672;48.176;16.338;2024-01-10T15:43:27;26.58;;;8.57;;
66761;SDS011;53672;48.176;16.338;2024-01-10T15:48:31;33.65;;;11.45;;
66761;SDS011;53672;48.176;16.338;2024-01-10T15:53:44;26.42;;;9.18;;
66761;SDS011;53672;48.176;16.338;2024-01-10T15:58:46;30.13;;;11.30;;
66761;SDS011;53672;48.176;16.338;2024-01-10T16:03:49;31.33;;;10.63;;
66761;SDS011;53672;48.176;16.338;2024-01-10T16:08:50;30.92;;;11.18;;
66761;SDS011;53672;48.176;16.338;2024-01-10T16:13:52;29.40;;;11.35;;
66761;SDS011;53672;48.176;16.338;2024-01-10T16:18:55;33.17;;;12.35;;
66761;SDS011;53672;48.176;16.338;2024-01-10T16:23:56;33.67;;;12.50;;
66761;SDS011;53672;48.176;16.338;2024-01-10T16:28:58;30.00;;;10.85;;
66761;SDS011;53672;48.176;16.338;2024-01-10T16:34:01;34.20;;;12.50;;
66761;SDS011;53672;48.176;16.338;2024-01-10T16:39:02;34.13;;;11.95;;
66761;SDS011;53672;48.176;16.338;2024-01-10T16:44:05;28.85;;;9.20;;
66761;SDS011;53672;48.176;16.338;2024-01-10T16:49:08;20.70;;;8.23;;
66761;SDS011;53672;48.176;16.338;2024-01-10T16:54:10;26.23;;;8.43;;
66761;SDS011;53672;48.176;16.338;2024-01-10T16:59:11;31.38;;;11.70;;
66761;SDS011;53672;48.176;16.338;2024-01-10T17:04:14;22.10;;;7.15;;
66761;SDS011;53672;48.176;16.338;2024-01-10T17:09:16;19.92;;;7.57;;
66761;SDS011;53672;48.176;16.338;2024-01-10T17:14:18;30.53;;;10.37;;
66761;SDS011;53672;48.176;16.338;2024-01-10T17:19:21;23.80;;;6.70;;
66761;SDS011;53672;48.176;16.338;2024-01-10T17:24:23;25.52;;;10.20;;
66761;SDS011;53672;48.176;16.338;2024-01-10T17:29:25;22.83;;;8.10;;
66761;SDS011;53672;48.176;16.338;2024-01-10T17:34:28;16.88;;;7.05;;
66761;SDS011;53672;48.176;16.338;2024-01-10T17:39:30;19.27;;;7.60;;
66761;SDS011;53672;48.176;16.338;2024-01-10T17:44:32;27.20;;;9.23;;
66761;SDS011;53672;48.176;16.338;2024-01-10T17:49:39;25.73;;;8.43;;
66761;SDS011;53672;48.176;16.338;2024-01-10T17:54:40;26.00;;;8.23;;
66761;SDS011;53672;48.176;16.338;2024-01-10T17:59:44;28.55;;;9.80;;
66761;SDS011;53672;48.176;16.338;2024-01-10T18:04:47;24.40;;;8.10;;
66761;SDS011;53672;48.176;16.338;2024-01-10T18:09:49;21.10;;;6.75;;
66761;SDS011;53672;48.176;16.338;2024-01-10T18:14:50;16.83;;;7.07;;
66761;SDS011;53672;48.176;16.338;2024-01-10T18:19:53;23.67;;;9.10;;
66761;SDS011;53672;48.176;16.338;2024-01-10T18:24:55;25.55;;;9.15;;
66761;SDS011;53672;48.176;16.338;2024-01-10T18:29:57;21.90;;;7.77;;
66761;SDS011;53672;48.176;16.338;2024-01-10T18:35:00;20.35;;;7.40;;
66761;SDS011;53672;48.176;16.338;2024-01-10T18:40:01;30.58;;;11.27;;
66761;SDS011;53672;48.176;16.338;2024-01-10T18:45:03;28.33;;;9.90;;
66761;SDS011;53672;48.176;16.338;2024-01-10T18:50:07;30.08;;;10.90;;
66761;SDS011;53672;48.176;16.338;2024-01-10T18:55:09;30.93;;;10.60;;
66761;SDS011;53672;48.176;16.338;2024-01-10T19:00:11;21.88;;;8.25;;
66761;SDS011;53672;48.176;16.338;2024-01-10T19:05:16;27.73;;;9.02;;
66761;SDS011;53672;48.176;16.338;2024-01-10T19:10:17;28.80;;;10.02;;
66761;SDS011;53672;48.176;16.338;2024-01-10T19:15:19;30.50;;;9.93;;
66761;SDS011;53672;48.176;16.338;2024-01-10T19:20:22;19.50;;;6.67;;
66761;SDS011;53672;48.176;16.338;2024-01-10T19:25:24;26.60;;;9.80;;
66761;SDS011;53672;48.176;16.338;2024-01-10T19:30:25;25.75;;;8.82;;
66761;SDS011;53672;48.176;16.338;2024-01-10T19:35:30;30.17;;;10.10;;
66761;SDS011;53672;48.176;16.338;2024-01-10T19:40:32;27.08;;;9.60;;
66761;SDS011;53672;48.176;16.338;2024-01-10T19:45:34;29.83;;;10.83;;
66761;SDS011;53672;48.176;16.338;2024-01-10T19:50:37;30.98;;;10.20;;
66761;SDS011;53672;48.176;16.338;2024-01-10T19:55:39;32.22;;;11.48;;
66761;SDS011;53672;48.176;16.338;2024-01-10T20:00:41;31.02;;;10.32;;
66761;SDS011;53672;48.176;16.338;2024-01-10T20:05:44;30.02;;;11.15;;
66761;SDS011;53672;48.176;16.338;2024-01-10T20:10:46;33.30;;;11.40;;
66761;SDS011;53672;48.176;16.338;2024-01-10T20:15:48;30.85;;;11.25;;
66761;SDS011;53672;48.176;16.338;2024-01-10T20:20:51;32.60;;;11.23;;
66761;SDS011;53672;48.176;16.338;2024-01-10T20:25:53;28.00;;;10.93;;
66761;SDS011;53672;48.176;16.338;2024-01-10T20:30:54;36.78;;;12.43;;
66761;SDS011;53672;48.176;16.338;2024-01-10T20:36:00;37.77;;;13.33;;
66761;SDS011;53672;48.176;16.338;2024-01-10T20:41:02;36.97;;;14.02;;
66761;SDS011;53672;48.176;16.338;2024-01-10T20:46:04;42.08;;;13.35;;
66761;SDS011;53672;48.176;16.338;2024-01-10T20:51:07;36.95;;;12.73;;
66761;SDS011;53672;48.176;16.338;2024-01-10T20:56:09;36.55;;;11.50;;
66761;SDS011;53672;48.176;16.338;2024-01-10T21:01:11;31.10;;;11.17;;
66761;SDS011;53672;48.176;16.338;2024-01-10T21:06:13;17.25;;;7.15;;
66761;SDS011;53672;48.176;16.338;2024-01-10T21:11:15;28.30;;;9.90;;
66761;SDS011;53672;48.176;16.338;2024-01-10T21:16:17;26.35;;;8.68;;
66761;SDS011;53672;48.176;16.338;2024-01-10T21:21:20;24.83;;;9.23;;
66761;SDS011;53672;48.176;16.338;2024-01-10T21:26:21;24.67;;;8.97;;
66761;SDS011;53672;48.176;16.338;2024-01-10T21:31:23;21.25;;;7.65;;
66761;SDS011;53672;48.176;16.338;2024-01-10T21:36:26;25.95;;;8.75;;
66761;SDS011;53672;48.176;16.338;2024-01-10T21:41:28;23.10;;;7.75;;
66761;SDS011;53672;48.176;16.338;2024-01-10T21:46:29;22.13;;;7.47;;
66761;SDS011;53672;48.176;16.338;2024-01-10T21:51:32;20.10;;;7.53;;
66761;SDS011;53672;48.176;16.338;2024-01-10T21:56:34;21.75;;;7.40;;
66761;SDS011;53672;48.176;16.338;2024-01-10T22:01:35;21.02;;;8.23;;
66761;SDS011;53672;48.176;16.338;2024-01-10T22:06:38;24.65;;;8.75;;
66761;SDS011;53672;48.176;16.338;2024-01-10T22:11:40;23.85;;;8.38;;
66761;SDS011;53672;48.176;16.338;2024-01-10T22:16:42;22.63;;;8.73;;
66761;SDS011;53672;48.176;16.338;2024-01-10T22:21:45;18.35;;;6.75;;
66761;SDS011;53672;48.176;16.338;2024-01-10T22:26:46;23.92;;;7.28;;
66761;SDS011;53672;48.176;16.338;2024-01-10T22:31:50;20.73;;;6.90;;
66761;SDS011;53672;48.176;16.338;2024-01-10T22:36:53;26.33;;;8.50;;
66761;SDS011;53672;48.176;16.338;2024-01-10T22:41:55;23.43;;;9.17;;
66761;SDS011;53672;48.176;16.338;2024-01-10T22:46:56;25.98;;;9.07;;
66761;SDS011;53672;48.176;16.338;2024-01-10T22:52:00;29.17;;;9.63;;
66761;SDS011;53672;48.176;16.338;2024-01-10T22:57:01;31.52;;;9.65;;
66761;SDS011;53672;48.176;16.338;2024-01-10T23:02:03;29.70;;;9.73;;
66761;SDS011;53672;48.176;16.338;2024-01-10T23:07:06;26.03;;;8.97;;
66761;SDS011;53672;48.176;16.338;2024-01-10T23:12:08;25.27;;;9.00;;
66761;SDS011;53672;48.176;16.338;2024-01-10T23:17:10;27.65;;;9.60;;
66761;SDS011;53672;48.176;16.338;2024-01-10T23:22:13;32.47;;;11.02;;
66761;SDS011;53672;48.176;16.338;2024-01-10T23:27:14;34.25;;;12.60;;
66761;SDS011;53672;48.176;16.338;2024-01-10T23:32:16;36.17;;;12.30;;
66761;SDS011;53672;48.176;16.338;2024-01-10T23:37:19;36.50;;;12.15;;
66761;SDS011;53672;48.176;16.338;2024-01-10T23:42:20;35.13;;;12.77;;
66761;SDS011;53672;48.176;16.338;2024-01-10T23:47:22;35.28;;;13.27;;
66761;SDS011;53672;48.176;16.338;2024-01-10T23:52:25;37.75;;;13.45;;
66761;SDS011;53672;48.176;16.338;2024-01-10T23:57:27;31.53;;;11.43;;
